Home > Products > Valid Products > TAF

000
FTUS42 KTAE 301517 AAA
TAFVLD
TAF AMD
KVLD 301517Z 3015/0112 26010KT P6SM VCTS SCT025CB
      TEMPO 3016/3020 VRB15G30KT 3SM TSRA BKN025CB
     FM010100 20002KT P6SM OVC250=



000
FTUS42 KTAE 301514 AAA
TAFABY
TAF AMD
KABY 301514Z 3015/0112 27011KT P6SM VCTS SCT025CB
      TEMPO 3016/3020 VRB15G30KT 3SM TSRA BKN025CB
     FM010000 23007KT P6SM OVC250=



000
FTUS42 KTAE 301513 AAA
TAFTLH
TAF AMD
KTLH 301513Z 3015/0112 27010KT P6SM VCTS SCT025CB BKN040
      TEMPO 3016/3020 VRB15G30KT 3SM TSRA BKN025CB
     FM010100 26005KT P6SM BKN250=



000
FTUS42 KTAE 301331 AAA
TAFDHN
TAF AMD
KDHN 301331Z 3014/0112 24007KT P6SM BKN007
     FM301500 24010KT P6SM SCT007 SCT040
     FM301800 25010KT P6SM VCTS SCT050CB
     FM010000 23007KT P6SM OVC250=



000
FTUS42 KTAE 301331 AAA
TAFDHN
TAF AMD
KDHN 301331Z 3014/0112 24007KT P6SM BKN007
     FM301500 24010KT P6SM SCT007 SCT040
     FM301800 25010KT P6SM VCTS SCT050CB
     FM010000 23007KT P6SM OVC250=



000
FTUS42 KTAE 301120
TAFDHN
TAF
KDHN 301120Z 3012/0112 23006KT P6SM SCT250
     FM301800 25010KT P6SM VCTS SCT050CB
     FM010000 23007KT P6SM OVC250=



000
FTUS42 KTAE 301120
TAFABY
TAF
KABY 301120Z 3012/0112 22005KT P6SM SCT250
     FM301800 25010KT P6SM VCTS SCT050CB
     FM010000 23007KT P6SM OVC250=



000
FTUS42 KTAE 301120
TAFDHN
TAF
KDHN 301120Z 3012/0112 23006KT P6SM SCT250
     FM301800 25010KT P6SM VCTS SCT050CB
     FM010000 23007KT P6SM OVC250=



000
FTUS42 KTAE 301120
TAFVLD
TAF
KVLD 301120Z 3012/0112 00000KT P6SM SCT250
     FM301700 24007KT P6SM VCTS SCT040CB
     FM302200 20002KT P6SM OVC250=



000
FTUS42 KTAE 301120
TAFVLD
TAF
KVLD 301120Z 3012/0112 00000KT P6SM SCT250
     FM301700 24007KT P6SM VCTS SCT040CB
     FM302200 20002KT P6SM OVC250=



000
FTUS42 KTAE 301120
TAFTLH
TAF
KTLH 301120Z 3012/0112 25007KT P6SM VCTS SCT050CB
     FM302200 26005KT P6SM BKN250=



000
FTUS42 KTAE 301120
TAFTLH
TAF
KTLH 301120Z 3012/0112 25007KT P6SM VCTS SCT050CB
     FM302200 26005KT P6SM BKN250=



000
FTUS42 KTAE 301120
TAFABY
TAF
KABY 301120Z 3012/0112 22005KT P6SM SCT250
     FM301800 25010KT P6SM VCTS SCT050CB
     FM010000 23007KT P6SM OVC250=



000
FTUS42 KTAE 301026 AAA
TAFTLH
TAF AMD
KTLH 301026Z 3010/0106 25007KT P6SM VCTS SCT050CB
     FM302200 26005KT P6SM BKN250=



000
FTUS42 KTAE 301026 AAA
TAFTLH
TAF AMD
KTLH 301026Z 3010/0106 25007KT P6SM VCTS SCT050CB
     FM302200 26005KT P6SM BKN250=



000
FTUS42 KTAE 300524
TAFVLD
TAF
KVLD 300524Z 3006/0106 00000KT P6SM SCT250
     FM301700 24007KT P6SM VCTS SCT040CB
     FM302200 20002KT P6SM OVC250=



000
FTUS42 KTAE 300524
TAFDHN
TAF
KDHN 300524Z 3006/0106 23006KT P6SM SCT250
     FM301800 25010KT P6SM VCTS SCT050CB
     FM010000 23007KT P6SM OVC250=



000
FTUS42 KTAE 300524
TAFABY
TAF
KABY 300524Z 3006/0106 22005KT P6SM SCT250
     FM301800 25010KT P6SM VCTS SCT050CB
     FM010000 23007KT P6SM OVC250=



000
FTUS42 KTAE 300524
TAFTLH
TAF
KTLH 300524Z 3006/0106 23002KT P6SM SCT250
     FM301700 25007KT P6SM VCTS SCT050CB
     FM302200 26005KT P6SM BKN250=



000
FTUS42 KTAE 292320
TAFDHN
TAF
KDHN 292320Z 3000/3024 23006KT P6SM FEW070 SCT250
     FM301800 25010KT P6SM VCTS SCT050CB=



000
FTUS42 KTAE 292320
TAFVLD
TAF
KVLD 292320Z 3000/3024 00000KT P6SM SCT250
     FM301700 24007KT P6SM VCTS SCT040CB=



000
FTUS42 KTAE 292320
TAFTLH
TAF
KTLH 292320Z 3000/3024 23002KT P6SM SCT250
     FM301700 25007KT P6SM VCTS SCT050CB=



000
FTUS42 KTAE 292320
TAFABY
TAF
KABY 292320Z 3000/3024 23005KT P6SM SCT250
     FM301800 25010KT P6SM VCTS SCT050CB=



000
FTUS42 KTAE 291733
TAFDHN
TAF
KDHN 291733Z 2918/3018 27007KT P6SM FEW050
     FM300100 22005KT P6SM SKC
      TEMPO 3009/3013 4SM BR
     FM301400 25011KT P6SM SCT030 SCT150=



000
FTUS42 KTAE 291733
TAFTLH
TAF
KTLH 291733Z 2918/3018 27005KT P6SM SCT035 BKN150
     FM300100 00000KT P6SM SCT150
     FM301400 26007KT P6SM FEW020 BKN200=



000
FTUS42 KTAE 291733
TAFABY
TAF
KABY 291733Z 2918/3018 22005KT P6SM SCT050 SCT200
     FM300100 00000KT P6SM SKC
      TEMPO 3009/3013 4SM BR
     FM301500 25008KT P6SM SCT030 SCT150=



000
FTUS42 KTAE 291733
TAFVLD
TAF
KVLD 291733Z 2918/3018 22005KT P6SM SCT040 BKN150
     FM300100 00000KT P6SM SCT200
      TEMPO 3009/3013 4SM BR
     FM301400 26007KT P6SM SCT030 SCT150=



000
FTUS42 KTAE 291458 AAA
TAFTLH
TAF AMD
KTLH 291458Z 2915/3012 27005KT P6SM OVC012
     FM291800 28005KT P6SM BKN025 BKN200=



000
FTUS42 KTAE 291311 AAA
TAFABY
TAF AMD
KABY 291311Z 2913/3012 27005KT P6SM FEW040 SCT200=



000
FTUS42 KTAE 291139
TAFTLH
TAF
KTLH 291139Z 2912/3012 24003KT 2SM BR OVC002
     FM291400 28006KT P6SM SCT030 BKN250=



000
FTUS42 KTAE 291139
TAFDHN
TAF
KDHN 291139Z 2912/3012 00000KT 4SM BR SCT250
     FM291300 27007KT P6SM SCT250=



000
FTUS42 KTAE 291139
TAFTLH
TAF
KTLH 291139Z 2912/3012 24003KT 2SM BR OVC002
     FM291400 28006KT P6SM SCT030 BKN250=



000
FTUS42 KTAE 291139
TAFVLD
TAF
KVLD 291139Z 2912/3012 26005KT P6SM OVC006
     FM291500 21006KT P6SM BKN250=



000
FTUS42 KTAE 291139
TAFVLD
TAF
KVLD 291139Z 2912/3012 26005KT P6SM OVC006
     FM291500 21006KT P6SM BKN250=



000
FTUS42 KTAE 291139
TAFDHN
TAF
KDHN 291139Z 2912/3012 00000KT 4SM BR SCT250
     FM291300 27007KT P6SM SCT250=



000
FTUS42 KTAE 291139
TAFABY
TAF
KABY 291139Z 2912/3012 00000KT 4SM BR OVC002
     FM291400 27005KT P6SM FEW040 BKN250=



000
FTUS42 KTAE 291139
TAFABY
TAF
KABY 291139Z 2912/3012 00000KT 4SM BR OVC002
     FM291400 27005KT P6SM FEW040 BKN250=



000
FTUS42 KTAE 291000 AAB
TAFDHN
TAF AMD
KDHN 291000Z 2910/3006 28005KT P6SM SCT250
      TEMPO 2910/2913 1SM BR OVC002=



000
FTUS42 KTAE 290957 AAA
TAFDHN
TAF AMD
KDHN 290957Z 2910/3006 28005KT P6SM SCT250
      TEMPO 2910/2913 2SM BR SCT250=



000
FTUS42 KTAE 290956 AAB
TAFABY
TAF AMD
KABY 290956Z 2910/3006 00000KT 1/4SM FG VV002
     FM291300 27005KT P6SM FEW040 BKN250=



000
FTUS42 KTAE 290800 AAC
TAFVLD
TAF AMD
KVLD 290800Z 2908/3006 26005KT 4SM BR BKN003
      TEMPO 2908/2912 00000KT 1/2SM FG OVC002
     FM291500 21006KT P6SM BKN250=



000
FTUS42 KTAE 290758 AAB
TAFTLH
TAF AMD
KTLH 290758Z 2908/3006 24003KT 3SM BR BKN004
     FM291300 28006KT P6SM SCT030 BKN250=



000
FTUS42 KTAE 290758 AAB
TAFTLH
TAF AMD
KTLH 290758Z 2908/3006 24003KT 3SM BR BKN004
     FM291300 28006KT P6SM SCT030 BKN250=



000
FTUS42 KTAE 290757 AAA
TAFABY
TAF AMD
KABY 290757Z 2908/3006 00000KT 2SM BR OVC002
     FM291300 27005KT P6SM FEW040 BKN250=



000
FTUS42 KTAE 290724 AAB
TAFVLD
TAF AMD
KVLD 290724Z 2907/3006 26005KT 4SM BR BKN003
      TEMPO 2907/2911 00000KT 2SM BR OVC002
     FM291500 21006KT P6SM BKN250=



000
FTUS42 KTAE 290706 AAA
TAFVLD
TAF AMD
KVLD 290706Z 2907/3006 26005KT P6SM BKN003
      TEMPO 2909/2913 00000KT 4SM BR BKN005
     FM291500 21006KT P6SM BKN250=



000
FTUS42 KTAE 290706 AAA
TAFVLD
TAF AMD
KVLD 290706Z 2907/3006 26005KT P6SM BKN003
      TEMPO 2909/2913 00000KT 4SM BR BKN005
     FM291500 21006KT P6SM BKN250=



000
FTUS42 KTAE 290703 AAA
TAFTLH
TAF AMD
KTLH 290703Z 2907/3006 24003KT 3SM BR FEW004
     FM291300 28006KT P6SM SCT030 BKN250=



000
FTUS42 KTAE 290521
TAFVLD
TAF
KVLD 290521Z 2906/3006 26005KT P6SM SCT040 BKN100
      TEMPO 2911/2913 00000KT 4SM BR SCT250=



000
FTUS42 KTAE 290521
TAFDHN
TAF
KDHN 290521Z 2906/3006 28005KT P6SM SCT250
      TEMPO 2910/2913 4SM BR SCT250=



000
FTUS42 KTAE 290521
TAFTLH
TAF
KTLH 290521Z 2906/3006 26004KT P6SM SCT030 SCT100 BKN150
     FM291300 28006KT P6SM SCT030 BKN250=



000
FTUS42 KTAE 290521
TAFABY
TAF
KABY 290521Z 2906/3006 00000KT 1 1/2SM BR OVC002
     FM291300 27005KT P6SM FEW040 BKN250=



000
FTUS42 KTAE 290521
TAFTLH
TAF
KTLH 290521Z 2906/3006 26004KT P6SM SCT030 SCT100 BKN150
     FM291300 28006KT P6SM SCT030 BKN250=



000
FTUS42 KTAE 290521
TAFABY
TAF
KABY 290521Z 2906/3006 00000KT 1 1/2SM BR OVC002
     FM291300 27005KT P6SM FEW040 BKN250=



000
FTUS42 KTAE 290521
TAFVLD
TAF
KVLD 290521Z 2906/3006 26005KT P6SM SCT040 BKN100
      TEMPO 2911/2913 00000KT 4SM BR SCT250=



000
FTUS42 KTAE 290521
TAFDHN
TAF
KDHN 290521Z 2906/3006 28005KT P6SM SCT250
      TEMPO 2910/2913 4SM BR SCT250=



000
FTUS42 KTAE 290505 AAB
TAFABY
TAF AMD
KABY 290505Z 2905/2924 00000KT 1 1/2SM BR OVC002
      TEMPO 2908/2912 4SM BR SCT004
     FM291200 27005KT P6SM FEW040 FEW250=



000
FTUS42 KTAE 290311 AAA
TAFABY
TAF AMD
KABY 290311Z 2903/2924 21003KT P6SM BKN005
      TEMPO 2908/2912 4SM BR SCT004
     FM291200 27005KT P6SM FEW040 FEW250=



000
FTUS42 KTAE 290311 AAA
TAFABY
TAF AMD
KABY 290311Z 2903/2924 21003KT P6SM BKN005
      TEMPO 2908/2912 4SM BR SCT004
     FM291200 27005KT P6SM FEW040 FEW250=



000
FTUS42 KTAE 282322
TAFABY
TAF
KABY 282322Z 2900/2924 00000KT P6SM SCT040
      TEMPO 2908/2912 4SM BR SCT004
     FM291200 27005KT P6SM FEW040 FEW250=



000
FTUS42 KTAE 282322
TAFVLD
TAF
KVLD 282322Z 2900/2924 12005KT P6SM SCT008 BKN021 OVC035
     FM290300 26005KT P6SM SCT040 BKN100=



000
FTUS42 KTAE 282322
TAFTLH
TAF
KTLH 282322Z 2900/2924 26009KT P6SM SCT030 SCT100 BKN150
     FM291300 28006KT P6SM SCT030 BKN250=



000
FTUS42 KTAE 282322
TAFDHN
TAF
KDHN 282322Z 2900/2924 28005KT P6SM SCT040=



000
FTUS42 KTAE 282322
TAFABY
TAF
KABY 282322Z 2900/2924 00000KT P6SM SCT040
      TEMPO 2908/2912 4SM BR SCT004
     FM291200 27005KT P6SM FEW040 FEW250=



000
FTUS42 KTAE 282322
TAFVLD
TAF
KVLD 282322Z 2900/2924 12005KT P6SM SCT008 BKN021 OVC035
     FM290300 26005KT P6SM SCT040 BKN100=



000
FTUS42 KTAE 282322
TAFDHN
TAF
KDHN 282322Z 2900/2924 28005KT P6SM SCT040=



000
FTUS42 KTAE 282322
TAFTLH
TAF
KTLH 282322Z 2900/2924 26009KT P6SM SCT030 SCT100 BKN150
     FM291300 28006KT P6SM SCT030 BKN250=



000
FTUS42 KTAE 282148 AAC
TAFVLD
TAF AMD
KVLD 282148Z 2822/2918 24008KT P6SM VCTS SCT030CB
      TEMPO 2822/2823 VRB10G20KT 3SM TSRA BKN030CB
     FM290300 21003KT P6SM OVC100
     FM291200 28004KT P6SM BKN250=



000
FTUS42 KTAE 282148 AAC
TAFVLD
TAF AMD
KVLD 282148Z 2822/2918 24008KT P6SM VCTS SCT030CB
      TEMPO 2822/2823 VRB10G20KT 3SM TSRA BKN030CB
     FM290300 21003KT P6SM OVC100
     FM291200 28004KT P6SM BKN250=



000
FTUS42 KTAE 281930 AAB
TAFVLD
TAF AMD
KVLD 281930Z 2820/2918 24008KT P6SM VCTS SCT030CB
     FM290300 21003KT P6SM OVC100
     FM291200 28004KT P6SM BKN250=



000
FTUS42 KTAE 281930 AAA
TAFDHN
TAF AMD
KDHN 281930Z 2820/2918 28008KT P6SM VCTS SCT030CB
     FM290000 25005KT P6SM BKN100
     FM291200 26006KT P6SM FEW250=



000
FTUS42 KTAE 281929 AAA
TAFTLH
TAF AMD
KTLH 281929Z 2819/2918 25011KT P6SM VCTS BKN040CB
      TEMPO 2821/2824 VRB15G30KT 3SM TSRA BKN030CB
     FM290300 24004KT P6SM SCT005 BKN100
     FM291300 28006KT P6SM BKN250=



000
FTUS42 KTAE 281839 AAA
TAFVLD
TAF AMD
KVLD 281839Z 2819/2918 24008KT P6SM VCTS SCT030CB
      TEMPO 2819/2822 VRB15G30KT 3SM TSRA BKN030CB
     FM290300 21003KT P6SM OVC100
     FM291200 28004KT P6SM BKN250=



000
FTUS42 KTAE 281839 AAA
TAFVLD
TAF AMD
KVLD 281839Z 2819/2918 24008KT P6SM VCTS SCT030CB
      TEMPO 2819/2822 VRB15G30KT 3SM TSRA BKN030CB
     FM290300 21003KT P6SM OVC100
     FM291200 28004KT P6SM BKN250=



000
FTUS42 KTAE 281735
TAFTLH
TAF
KTLH 281735Z 2818/2918 25011KT P6SM VCTS BKN040CB
      TEMPO 2818/2820 VRB15G30KT 3SM TSRA BKN030CB
     FM290300 24004KT P6SM SCT005 BKN100
     FM291300 28006KT P6SM BKN250=



000
FTUS42 KTAE 281735
TAFABY
TAF
KABY 281735Z 2818/2918 26010KT P6SM VCTS SCT030CB
      TEMPO 2819/2823 VRB15G30KT 3SM TSRA BKN030CB
     FM290000 22004KT P6SM BKN100
     FM291200 28005KT P6SM FEW250=



000
FTUS42 KTAE 281735
TAFDHN
TAF
KDHN 281735Z 2818/2918 28008KT P6SM VCTS SCT030CB
      TEMPO 2818/2822 VRB15G30KT 3SM TSRA BKN030CB
     FM290000 25005KT P6SM BKN100
     FM291200 26006KT P6SM FEW250=



000
FTUS42 KTAE 281735
TAFVLD
TAF
KVLD 281735Z 2818/2918 24008KT P6SM VCTS SCT030CB
      TEMPO 2820/2824 VRB15G30KT 3SM TSRA BKN030CB
     FM290300 21003KT P6SM OVC100
     FM291200 28004KT P6SM BKN250=



000
FTUS42 KTAE 281540 AAB
TAFVLD
TAF AMD
KVLD 281540Z 2816/2912 24008KT P6SM VCTS BKN030CB
     FM290000 18003KT P6SM OVC250=



000
FTUS42 KTAE 281247 AAA
TAFVLD
TAF AMD
KVLD 281247Z 2813/2912 23005KT P6SM SCT030
     FM281800 24008KT 5SM TSRA BKN040CB
     FM290000 18003KT P6SM OVC250=



000
FTUS42 KTAE 281247 AAA
TAFVLD
TAF AMD
KVLD 281247Z 2813/2912 23005KT P6SM SCT030
     FM281800 24008KT 5SM TSRA BKN040CB
     FM290000 18003KT P6SM OVC250=



000
FTUS42 KTAE 281120
TAFTLH
TAF
KTLH 281120Z 2812/2912 25006KT P6SM VCTS BKN050CB
     FM281800 25008KT 5SM TSRA BKN050CB
     FM290000 25005KT P6SM OVC100=



000
FTUS42 KTAE 281120
TAFABY
TAF
KABY 281120Z 2812/2912 25004KT P6SM BKN005
     FM281300 26010KT P6SM VCTS BKN030CB
     FM290000 22004KT P6SM BKN250=



000
FTUS42 KTAE 281120
TAFDHN
TAF
KDHN 281120Z 2812/2912 26006KT P6SM VCTS BKN020CB
     FM281500 26008KT P6SM VCTS BKN030CB
     FM290000 25006KT P6SM OVC250=



000
FTUS42 KTAE 281120
TAFVLD
TAF
KVLD 281120Z 2812/2912 23005KT P6SM BKN030
     FM281800 24008KT 5SM TSRA BKN040CB
     FM290000 18003KT P6SM OVC250=



000
FTUS42 KTAE 280522 CCA
TAFTLH
TAF COR
KTLH 280522Z 2806/2906 25006KT P6SM BKN050
     FM281800 25008KT 5SM TSRA BKN050CB
     FM290000 25005KT P6SM OVC100=



000
FTUS42 KTAE 280521
TAFDHN
TAF
KDHN 280521Z 2806/2906 24006KT P6SM SCT030 BKN100
     FM280800 26006KT 5SM -RA BR BKN020
     FM281500 26008KT P6SM VCTS BKN030CB
     FM290000 25006KT P6SM OVC250=



000
FTUS42 KTAE 280521
TAFVLD
TAF
KVLD 280521Z 2806/2906 22006KT P6SM SCT100
     FM280800 23005KT P6SM BKN030
     FM281800 24008KT 5SM TSRA BKN040CB
     FM290000 18003KT P6SM OVC250=



000
FTUS42 KTAE 280521
TAFABY
TAF
KABY 280521Z 2806/2906 23006KT P6SM SCT030 BKN100
     FM280800 25005KT 5SM -RA BR BKN020
     FM281500 26010KT P6SM VCTS BKN030CB
     FM290000 22004KT P6SM BKN250=



000
FTUS42 KTAE 280521
TAFTLH
TAF
KTLH 280521Z 2806/2906 25006KT P6SM BKN030
     FM281800 25008KT 5SM TSRA BKN050CB
     FM290000 25005KT P6SM OVC100=



000
FTUS42 KTAE 272324
TAFVLD
TAF
KVLD 272324Z 2800/2824 22006KT P6SM SCT100
     FM280800 23005KT P6SM BKN030
     FM281800 24008KT 5SM TSRA BKN040CB=



000
FTUS42 KTAE 272324
TAFDHN
TAF
KDHN 272324Z 2800/2824 24006KT P6SM SCT030 BKN100
     FM280800 26006KT 5SM -RA BR BKN020
     FM281500 26008KT P6SM VCTS BKN030CB=



000
FTUS42 KTAE 272324
TAFTLH
TAF
KTLH 272324Z 2800/2824 23008KT P6SM SCT040 BKN250
     FM280600 25006KT P6SM BKN030
     FM281800 25008KT 5SM TSRA BKN050CB=



000
FTUS42 KTAE 272324
TAFABY
TAF
KABY 272324Z 2800/2824 23006KT P6SM SCT030 BKN100
     FM280800 25005KT 5SM -RA BR BKN020
     FM281500 26010KT P6SM VCTS BKN030CB=



000
FTUS42 KTAE 272324
TAFABY
TAF
KABY 272324Z 2800/2824 23006KT P6SM SCT030 BKN100
     FM280800 25005KT 5SM -RA BR BKN020
     FM281500 26010KT P6SM VCTS BKN030CB=



000
FTUS42 KTAE 272324
TAFTLH
TAF
KTLH 272324Z 2800/2824 23008KT P6SM SCT040 BKN250
     FM280600 25006KT P6SM BKN030
     FM281800 25008KT 5SM TSRA BKN050CB=



000
FTUS42 KTAE 272324
TAFVLD
TAF
KVLD 272324Z 2800/2824 22006KT P6SM SCT100
     FM280800 23005KT P6SM BKN030
     FM281800 24008KT 5SM TSRA BKN040CB=



000
FTUS42 KTAE 272324
TAFDHN
TAF
KDHN 272324Z 2800/2824 24006KT P6SM SCT030 BKN100
     FM280800 26006KT 5SM -RA BR BKN020
     FM281500 26008KT P6SM VCTS BKN030CB=



000
FTUS42 KTAE 271845 AAA
TAFTLH
TAF AMD
KTLH 271845Z 2719/2818 24012KT P6SM VCTS SCT030CB
      TEMPO 2719/2720 VRB15G30KT 3SM TSRA BKN025CB
     FM280000 25004KT P6SM SCT030 BKN250
     FM281000 25006KT P6SM VCTS SCT020CB=



000
FTUS42 KTAE 271742 RRA
TAFTLH
TAF
KTLH 271742Z 2718/2818 24012KT P6SM VCTS SCT030CB
     FM280000 25004KT P6SM SCT030 BKN250
     FM281000 25006KT P6SM VCTS SCT020CB=



000
FTUS42 KTAE 271742 RRA
TAFABY
TAF
KABY 271742Z 2718/2818 23015KT P6SM VCTS SCT025CB
      TEMPO 2720/2724 VRB15G25KT 3SM TSRA BKN025CB
     FM280300 24005KT P6SM SCT040 BKN100
     FM280900 23004KT P6SM VCTS SCT030CB BKN100=



000
FTUS42 KTAE 271742 RRA
TAFVLD
TAF
KVLD 271742Z 2718/2818 20008KT P6SM VCTS SCT025CB BKN250
     FM280000 24004KT P6SM SCT040 BKN100
     FM281500 23005KT P6SM VCTS SCT025CB=



000
FTUS42 KTAE 271742 RRA
TAFDHN
TAF
KDHN 271742Z 2718/2818 22010KT P6SM VCTS SCT020CB
      TEMPO 2720/2724 VRB15G25KT 3SM TSRA BKN025CB
     FM280300 25008KT P6SM SCT040 BKN100
     FM281000 26008KT P6SM VCTS SCT020CB
     FM281200 27005KT P6SM SCT025=



    US Dept of Commerce
    National Oceanic and Atmospheric Administration
    National Weather Service
    1325 East West Highway
    Silver Spring, MD 20910
    Page Author: NWS Internet Services Team
Disclaimer
Information Quality
Credits
Glossary
Privacy Policy
Freedom of Information Act (FOIA)
About Us
Career Opportunities